createdAt,value
2022-08-18T00:32:35.348Z,1004.27
2022-08-18T00:33:35.357Z,1004.29
2022-08-18T00:34:35.370Z,1004.28
2022-08-18T00:35:35.388Z,1004.25
2022-08-18T00:36:35.393Z,1004.27
2022-08-18T00:37:35.403Z,1004.25
2022-08-18T00:38:35.446Z,1004.26
2022-08-18T00:39:38.439Z,1004.26
2022-08-18T00:40:37.959Z,1004.26
2022-08-18T00:41:35.461Z,1004.26
2022-08-18T00:42:35.471Z,1004.25
2022-08-18T00:43:35.477Z,1004.27
2022-08-18T00:44:35.489Z,1004.26
2022-08-18T00:45:35.506Z,1004.23
2022-08-18T00:46:35.520Z,1004.24
2022-08-18T00:48:48.460Z,1004.21
2022-08-18T00:49:43.144Z,1004.20
2022-08-18T00:50:43.159Z,1004.25
2022-08-18T00:51:43.163Z,1004.22
2022-08-18T00:52:43.177Z,1004.22
2022-08-18T00:53:43.189Z,1004.22
2022-08-18T00:54:43.208Z,1004.22
2022-08-18T00:55:43.797Z,1004.20
2022-08-18T00:56:43.228Z,1004.19
2022-08-18T00:57:43.240Z,1004.21
2022-08-18T00:58:43.253Z,1004.20
2022-08-18T00:59:43.266Z,1004.20
2022-08-18T01:00:43.368Z,1004.19
2022-08-18T01:01:43.299Z,1004.22
2022-08-18T01:02:43.312Z,1004.25
2022-08-18T01:03:43.316Z,1004.28
2022-08-18T01:04:43.331Z,1004.29
2022-08-18T01:05:43.352Z,1004.33
2022-08-18T01:06:43.364Z,1004.32
2022-08-18T01:07:43.370Z,1004.33
2022-08-18T01:08:43.389Z,1004.31
2022-08-18T01:09:43.397Z,1004.35
2022-08-18T01:10:43.408Z,1004.37
2022-08-18T01:11:43.429Z,1004.37
2022-08-18T01:12:45.468Z,1004.42
2022-08-18T01:13:43.449Z,1004.41
2022-08-18T01:14:43.461Z,1004.41
2022-08-18T01:15:43.473Z,1004.40
2022-08-18T01:16:56.825Z,1004.40
2022-08-18T01:17:43.513Z,1004.37
2022-08-18T01:18:43.512Z,1004.33
2022-08-18T01:19:43.534Z,1004.33
2022-08-18T01:20:43.538Z,1004.31
2022-08-18T01:21:43.560Z,1004.30
2022-08-18T01:22:43.575Z,1004.26
2022-08-18T01:23:43.586Z,1004.28
2022-08-18T01:24:43.599Z,1004.28
2022-08-18T01:25:43.603Z,1004.26
2022-08-18T01:26:44.935Z,1004.26
2022-08-18T01:27:43.637Z,1004.28
2022-08-18T01:28:43.643Z,1004.28
2022-08-18T01:29:43.756Z,1004.27
2022-08-18T01:30:43.668Z,1004.27
2022-08-18T01:31:54.340Z,1004.32
2022-08-18T01:32:43.702Z,1004.31
2022-08-18T01:33:43.717Z,1004.30
2022-08-18T01:34:43.720Z,1004.32
2022-08-18T01:35:43.732Z,1004.28
2022-08-18T01:36:43.746Z,1004.30
2022-08-18T01:37:43.758Z,1004.26
2022-08-18T01:38:43.774Z,1004.27
2022-08-18T01:41:21.329Z,1004.27
2022-08-18T01:41:24.575Z,1004.29
2022-08-18T01:41:43.859Z,1004.26
2022-08-18T01:42:43.829Z,1004.27
2022-08-18T01:43:43.837Z,1004.26
2022-08-18T01:44:43.855Z,1004.29
2022-08-18T01:45:43.871Z,1004.28
2022-08-18T01:46:43.873Z,1004.26
2022-08-18T01:47:48.015Z,1004.30
2022-08-18T01:48:43.900Z,1004.27
2022-08-18T01:49:43.932Z,1004.26
2022-08-18T01:50:43.924Z,1004.25
2022-08-18T01:51:43.946Z,1004.28
2022-08-18T01:52:43.957Z,1004.26
2022-08-18T01:53:43.974Z,1004.21
2022-08-18T01:54:43.975Z,1004.25
2022-08-18T01:55:43.990Z,1004.26
2022-08-18T01:56:44.010Z,1004.26
2022-08-18T01:57:44.015Z,1004.32
2022-08-18T01:58:44.028Z,1004.34
2022-08-18T01:59:44.046Z,1004.38
2022-08-18T02:00:44.126Z,1004.39
2022-08-18T02:01:48.221Z,1004.40
2022-08-18T02:02:44.081Z,1004.39
2022-08-18T02:03:44.090Z,1004.39
2022-08-18T02:04:44.103Z,1004.38
2022-08-18T02:05:44.123Z,1004.39
2022-08-18T02:06:47.765Z,1004.34
2022-08-18T02:07:49.177Z,1004.33
2022-08-18T02:08:46.457Z,1004.32
2022-08-18T02:09:44.173Z,1004.30
2022-08-18T02:10:44.178Z,1004.27
2022-08-18T02:11:44.198Z,1004.26
2022-08-18T02:12:44.215Z,1004.27
2022-08-18T02:13:44.216Z,1004.24
2022-08-18T02:14:44.229Z,1004.27
2022-08-18T02:15:44.242Z,1004.28
2022-08-18T02:16:44.261Z,1004.24
2022-08-18T02:17:44.268Z,1004.28
2022-08-18T02:18:47.711Z,1004.27
2022-08-18T02:19:44.299Z,1004.27
2022-08-18T02:20:44.857Z,1004.31
2022-08-18T02:21:44.325Z,1004.30
2022-08-18T02:22:44.328Z,1004.32
2022-08-18T02:23:46.929Z,1004.32
2022-08-18T02:24:44.364Z,1004.34
2022-08-18T02:25:44.375Z,1004.34
2022-08-18T02:26:44.380Z,1004.42
2022-08-18T02:27:44.443Z,1004.44
2022-08-18T02:28:44.415Z,1004.44
2022-08-18T02:29:44.433Z,1004.50
2022-08-18T02:30:44.431Z,1004.50
2022-08-18T02:31:44.444Z,1004.49
2022-08-18T02:32:44.453Z,1004.51
2022-08-18T02:33:51.848Z,1004.49
2022-08-18T02:34:44.478Z,1004.49
2022-08-18T02:35:44.492Z,1004.45
2022-08-18T02:36:44.509Z,1004.52
2022-08-18T02:37:44.518Z,1004.45
2022-08-18T02:38:44.529Z,1004.52
2022-08-18T02:39:44.628Z,1004.46
2022-08-18T02:40:44.554Z,1004.52
2022-08-18T02:41:44.576Z,1004.50
2022-08-18T02:42:44.577Z,1004.43
2022-08-18T02:43:44.600Z,1004.42
2022-08-18T02:44:44.610Z,1004.36
2022-08-18T02:45:44.621Z,1004.36
2022-08-18T02:46:44.629Z,1004.37
2022-08-18T02:47:44.649Z,1004.40
2022-08-18T02:48:44.662Z,1004.46
2022-08-18T02:49:44.665Z,1004.43
2022-08-18T02:50:44.679Z,1004.41
2022-08-18T02:51:44.689Z,1004.37
2022-08-18T02:52:44.711Z,1004.38
2022-08-18T02:53:44.722Z,1004.42
2022-08-18T02:54:44.727Z,1004.42
2022-08-18T02:55:44.739Z,1004.41
2022-08-18T02:59:10.638Z,1004.47
2022-08-18T03:00:10.629Z,1004.50
2022-08-18T03:01:10.708Z,1004.51
2022-08-18T03:02:10.659Z,1004.47
2022-08-18T03:03:10.666Z,1004.51
2022-08-18T03:05:23.295Z,1004.61
2022-08-18T03:06:23.304Z,1004.59
2022-08-18T03:07:23.310Z,1004.59
2022-08-18T03:08:23.327Z,1004.62
2022-08-18T03:11:01.003Z,1004.62
2022-08-18T03:12:01.011Z,1004.61
2022-08-18T03:13:01.018Z,1004.65
2022-08-18T03:14:01.032Z,1004.64
2022-08-18T03:15:01.041Z,1004.64
2022-08-18T03:16:01.061Z,1004.63
2022-08-18T03:25:29.451Z,1004.68
2022-08-18T03:26:29.471Z,1004.73
2022-08-18T03:27:29.483Z,1004.68
2022-08-18T03:28:29.492Z,1004.67
2022-08-18T03:29:32.649Z,1004.73
2022-08-18T03:30:29.517Z,1004.70
2022-08-18T03:31:29.524Z,1004.71
2022-08-18T03:32:29.535Z,1004.73
2022-08-18T03:33:29.547Z,1004.76
2022-08-18T03:34:29.560Z,1004.74
2022-08-18T03:35:29.572Z,1004.72
2022-08-18T03:36:29.589Z,1004.74
2022-08-18T03:37:29.603Z,1004.74
2022-08-18T03:38:29.614Z,1004.76
2022-08-18T03:39:29.694Z,1004.76
2022-08-18T03:40:29.638Z,1004.74
2022-08-18T03:41:57.166Z,1004.71
2022-08-18T03:42:29.664Z,1004.73
2022-08-18T03:43:51.210Z,1004.73
2022-08-18T03:44:29.689Z,1004.74
2022-08-18T03:45:29.690Z,1004.72
2022-08-18T03:46:29.712Z,1004.74
2022-08-18T03:47:29.722Z,1004.74
2022-08-18T03:48:29.727Z,1004.77
2022-08-18T03:49:29.742Z,1004.77
2022-08-18T03:50:29.753Z,1004.77
2022-08-18T03:51:29.772Z,1004.80
2022-08-18T03:52:29.784Z,1004.76
2022-08-18T03:53:29.794Z,1004.77
2022-08-18T03:54:29.808Z,1004.74
2022-08-18T03:55:29.813Z,1004.71
2022-08-18T03:56:29.831Z,1004.68
2022-08-18T03:57:29.843Z,1004.72
2022-08-18T03:58:29.854Z,1004.67
2022-08-18T03:59:29.869Z,1004.72
2022-08-18T04:00:29.880Z,1004.69
2022-08-18T04:01:29.968Z,1004.70
2022-08-18T04:02:29.902Z,1004.75
2022-08-18T04:03:29.915Z,1004.76
2022-08-18T04:04:29.926Z,1004.78
2022-08-18T04:05:29.939Z,1004.77
2022-08-18T04:06:30.659Z,1004.77
2022-08-18T04:07:29.963Z,1004.80
2022-08-18T04:08:29.974Z,1004.77
2022-08-18T04:09:29.991Z,1004.83
2022-08-18T04:10:29.990Z,1004.84
2022-08-18T04:11:30.003Z,1004.85
2022-08-18T04:12:30.018Z,1004.83
2022-08-18T04:13:30.034Z,1004.87
2022-08-18T04:14:30.047Z,1004.89
2022-08-18T04:15:30.063Z,1004.88
2022-08-18T04:16:30.062Z,1004.89
2022-08-18T04:17:30.074Z,1004.89
2022-08-18T04:18:30.088Z,1004.91
2022-08-18T04:19:30.105Z,1004.92
2022-08-18T04:20:30.111Z,1004.91
2022-08-18T04:21:30.121Z,1004.95
2022-08-18T04:22:30.135Z,1004.92
2022-08-18T04:23:30.146Z,1004.92
2022-08-18T04:24:31.236Z,1004.94
2022-08-18T04:25:32.879Z,1004.98
2022-08-18T04:26:30.183Z,1005.00
2022-08-18T04:27:30.193Z,1004.95
2022-08-18T04:28:30.213Z,1004.92
2022-08-18T04:29:30.218Z,1004.92
2022-08-18T04:30:30.230Z,1004.94
2022-08-18T04:31:30.247Z,1004.96
2022-08-18T04:32:30.437Z,1004.94
2022-08-18T04:33:30.271Z,1004.97
2022-08-18T04:34:30.275Z,1004.97
2022-08-18T04:35:30.290Z,1004.96
2022-08-18T04:36:30.306Z,1005.00
2022-08-18T04:37:30.312Z,1005.03
2022-08-18T04:38:30.331Z,1005.05
2022-08-18T04:39:30.450Z,1005.06
2022-08-18T04:40:30.447Z,1005.06
2022-08-18T04:41:30.360Z,1005.11
2022-08-18T04:42:30.369Z,1005.07
2022-08-18T04:43:30.390Z,1005.10
2022-08-18T04:44:30.392Z,1005.12
2022-08-18T04:45:30.413Z,1005.11
2022-08-18T04:46:30.424Z,1005.11
2022-08-18T04:47:30.431Z,1005.09
2022-08-18T04:48:30.447Z,1005.07
2022-08-18T04:49:30.452Z,1005.03
2022-08-18T04:50:30.466Z,1005.06
2022-08-18T04:52:36.564Z,1005.07
2022-08-18T04:52:39.847Z,1005.04
2022-08-18T04:53:30.507Z,1005.12
2022-08-18T04:54:30.513Z,1005.05
2022-08-18T04:55:30.532Z,1005.09
2022-08-18T04:56:30.538Z,1005.06
2022-08-18T04:57:33.017Z,1005.07
2022-08-18T04:58:30.568Z,1005.08
2022-08-18T04:59:30.579Z,1005.05
2022-08-18T05:00:30.597Z,1005.03
2022-08-18T05:01:30.687Z,1005.08
2022-08-18T05:02:30.607Z,1005.05
2022-08-18T05:03:30.619Z,1005.05
2022-08-18T05:04:30.633Z,1005.06
2022-08-18T05:05:30.650Z,1005.09
2022-08-18T05:06:30.654Z,1005.06
2022-08-18T05:07:30.679Z,1005.12
2022-08-18T05:08:30.677Z,1005.14
2022-08-18T05:09:30.690Z,1005.11
2022-08-18T05:10:30.708Z,1005.10
2022-08-18T05:11:30.715Z,1005.11
2022-08-18T05:12:30.725Z,1005.12
2022-08-18T05:13:30.746Z,1005.11
2022-08-18T05:14:30.750Z,1005.13
2022-08-18T05:15:46.872Z,1005.07
2022-08-18T05:16:30.772Z,1005.02
2022-08-18T05:17:31.205Z,1005.12
2022-08-18T05:18:30.799Z,1005.04
2022-08-18T05:19:30.808Z,1005.05
2022-08-18T05:20:30.823Z,1005.07
2022-08-18T05:21:30.840Z,1005.11
2022-08-18T05:22:31.765Z,1005.14
2022-08-18T05:23:30.866Z,1005.17
2022-08-18T05:24:37.715Z,1005.15
2022-08-18T05:25:30.891Z,1005.17
2022-08-18T05:26:30.895Z,1005.19
2022-08-18T05:27:30.914Z,1005.15
2022-08-18T05:28:30.918Z,1005.17
2022-08-18T05:29:30.934Z,1005.18
2022-08-18T05:30:30.942Z,1005.21
2022-08-18T05:31:30.962Z,1005.19
2022-08-18T05:32:47.449Z,1005.19
2022-08-18T05:33:30.979Z,1005.25
2022-08-18T05:34:30.991Z,1005.28
2022-08-18T05:35:31.005Z,1005.31
2022-08-18T05:36:31.014Z,1005.30
2022-08-18T05:37:31.030Z,1005.31
2022-08-18T05:38:31.049Z,1005.29
2022-08-18T05:39:31.128Z,1005.32
2022-08-18T05:40:31.072Z,1005.34
2022-08-18T05:41:31.076Z,1005.33
2022-08-18T05:42:31.091Z,1005.29
2022-08-18T05:43:31.100Z,1005.33
2022-08-18T05:44:31.120Z,1005.31
2022-08-18T05:45:31.131Z,1005.32
2022-08-18T05:46:31.139Z,1005.35
2022-08-18T05:47:31.158Z,1005.32
2022-08-18T05:48:31.160Z,1005.36
2022-08-18T05:49:31.181Z,1005.37
2022-08-18T05:50:31.193Z,1005.35
2022-08-18T05:51:31.205Z,1005.37
2022-08-18T05:52:31.215Z,1005.36
2022-08-18T05:53:31.229Z,1005.37
2022-08-18T05:54:31.237Z,1005.37
2022-08-18T05:55:31.247Z,1005.33
2022-08-18T05:56:31.266Z,1005.30
2022-08-18T05:57:31.270Z,1005.31
2022-08-18T05:58:33.526Z,1005.30
2022-08-18T05:59:31.297Z,1005.29
2022-08-18T06:00:31.307Z,1005.26
2022-08-18T06:01:31.323Z,1005.27
2022-08-18T06:02:31.427Z,1005.25
2022-08-18T06:03:44.879Z,1005.25
2022-08-18T06:04:31.367Z,1005.25
2022-08-18T06:05:31.373Z,1005.26
2022-08-18T06:06:31.381Z,1005.21
2022-08-18T06:07:33.397Z,1005.24
2022-08-18T06:08:31.406Z,1005.26
2022-08-18T06:09:31.420Z,1005.24
2022-08-18T06:10:31.437Z,1005.26
2022-08-18T06:11:31.444Z,1005.28
2022-08-18T06:12:31.453Z,1005.29
2022-08-18T06:13:31.476Z,1005.29
2022-08-18T06:14:31.488Z,1005.32
2022-08-18T06:15:31.499Z,1005.30
2022-08-18T06:16:31.511Z,1005.33
2022-08-18T06:17:31.516Z,1005.33
2022-08-18T06:18:31.541Z,1005.34
2022-08-18T06:19:31.550Z,1005.30
2022-08-18T06:20:31.559Z,1005.30
2022-08-18T06:21:34.488Z,1005.37
2022-08-18T06:22:31.691Z,1005.36
2022-08-18T06:23:31.599Z,1005.36
2022-08-18T06:24:31.611Z,1005.36
2022-08-18T06:25:31.614Z,1005.41
2022-08-18T06:26:31.630Z,1005.40
2022-08-18T06:27:31.649Z,1005.42
2022-08-18T06:28:31.654Z,1005.43
2022-08-18T06:29:31.672Z,1005.44
2022-08-18T06:30:31.688Z,1005.45
2022-08-18T06:31:31.692Z,1005.43
2022-08-18T06:32:31.701Z,1005.46
2022-08-18T06:33:31.732Z,1005.48
2022-08-18T06:34:31.728Z,1005.45
2022-08-18T06:35:31.742Z,1005.46
2022-08-18T06:36:31.762Z,1005.46
2022-08-18T06:37:31.768Z,1005.49
2022-08-18T06:38:31.782Z,1005.49
2022-08-18T06:39:31.865Z,1005.51
2022-08-18T06:40:31.810Z,1005.46
2022-08-18T06:41:41.566Z,1005.51
2022-08-18T06:42:31.837Z,1005.51
2022-08-18T06:43:31.851Z,1005.57
2022-08-18T06:44:31.861Z,1005.55
2022-08-18T06:45:33.918Z,1005.57
2022-08-18T06:46:31.880Z,1005.65
2022-08-18T06:47:31.901Z,1005.67
2022-08-18T06:48:31.913Z,1005.70
2022-08-18T06:49:31.924Z,1005.71
2022-08-18T06:50:31.938Z,1005.72
2022-08-18T06:51:31.943Z,1005.71
2022-08-18T06:52:31.959Z,1005.74
2022-08-18T06:53:31.975Z,1005.72
2022-08-18T06:54:31.992Z,1005.76
2022-08-18T06:55:31.997Z,1005.74
2022-08-18T06:56:32.016Z,1005.74
2022-08-18T06:57:32.021Z,1005.75
2022-08-18T06:58:32.033Z,1005.74
2022-08-18T06:59:32.053Z,1005.77
2022-08-18T07:00:32.632Z,1005.78
2022-08-18T07:01:32.146Z,1005.79
2022-08-18T07:02:32.085Z,1005.75
2022-08-18T07:03:32.099Z,1005.72
2022-08-18T07:04:32.117Z,1005.76
2022-08-18T07:05:32.125Z,1005.80
2022-08-18T07:06:32.140Z,1005.79
2022-08-18T07:07:39.922Z,1005.80
2022-08-18T07:08:32.173Z,1005.83
2022-08-18T07:09:32.183Z,1005.88
2022-08-18T07:10:32.202Z,1005.91
2022-08-18T07:11:32.207Z,1005.88
2022-08-18T07:12:32.994Z,1005.88
2022-08-18T07:13:32.229Z,1005.92
2022-08-18T07:14:32.243Z,1005.92
2022-08-18T07:15:32.257Z,1005.92
2022-08-18T07:16:54.988Z,1005.96
2022-08-18T07:17:42.862Z,1005.94
2022-08-18T07:18:32.296Z,1005.90
2022-08-18T07:19:32.311Z,1005.92
2022-08-18T07:20:32.331Z,1005.95
2022-08-18T07:21:32.335Z,1005.90
2022-08-18T07:22:39.387Z,1005.92
2022-08-18T07:23:32.370Z,1005.96
2022-08-18T07:24:32.382Z,1005.95
2022-08-18T07:25:32.390Z,1005.97
2022-08-18T07:26:32.411Z,1005.95
2022-08-18T07:27:32.418Z,1005.94
2022-08-18T07:28:32.435Z,1005.96
2022-08-18T07:29:32.443Z,1005.94
2022-08-18T07:30:32.463Z,1005.99
2022-08-18T07:31:32.472Z,1005.94
2022-08-18T07:32:32.490Z,1005.93
2022-08-18T07:33:32.505Z,1005.94
2022-08-18T07:34:32.511Z,1005.93
2022-08-18T07:35:32.526Z,1005.93
2022-08-18T07:36:32.544Z,1005.93
2022-08-18T07:37:32.567Z,1005.91
2022-08-18T07:38:42.472Z,1005.94
2022-08-18T07:39:32.645Z,1005.91
2022-08-18T07:40:32.602Z,1005.88
2022-08-18T07:41:32.613Z,1005.89
2022-08-18T07:42:53.865Z,1005.91
2022-08-18T07:43:32.643Z,1005.80
2022-08-18T07:44:32.656Z,1005.86
2022-08-18T07:45:32.662Z,1005.79
2022-08-18T07:46:32.678Z,1005.81
2022-08-18T07:47:32.698Z,1005.77
2022-08-18T07:48:40.423Z,1005.73
2022-08-18T07:49:32.725Z,1005.73
2022-08-18T07:50:58.457Z,1005.78
2022-08-18T07:51:37.115Z,1005.76
2022-08-18T07:52:36.099Z,1005.80
2022-08-18T07:53:32.773Z,1005.80
2022-08-18T07:54:49.788Z,1005.80
2022-08-18T07:55:32.802Z,1005.82
2022-08-18T07:56:32.817Z,1005.79
2022-08-18T07:57:32.831Z,1005.84
2022-08-18T07:58:32.852Z,1005.85
2022-08-18T07:59:32.866Z,1005.85
2022-08-18T08:00:57.355Z,1005.84
2022-08-18T08:01:33.585Z,1005.82
2022-08-18T08:02:34.118Z,1005.83
2022-08-18T08:03:32.922Z,1005.85
2022-08-18T08:04:32.926Z,1005.85
2022-08-18T08:05:32.943Z,1005.85
2022-08-18T08:06:32.964Z,1005.83
2022-08-18T08:07:33.383Z,1005.86
2022-08-18T08:08:32.990Z,1005.88
2022-08-18T08:09:33.009Z,1005.84
2022-08-18T08:10:33.013Z,1005.85
2022-08-18T08:11:33.034Z,1005.85
2022-08-18T08:12:36.877Z,1005.85
2022-08-18T08:13:54.157Z,1005.86
2022-08-18T08:14:33.077Z,1005.83
2022-08-18T08:16:15.634Z,1005.79
2022-08-18T08:17:15.655Z,1005.80
2022-08-18T08:18:15.669Z,1005.77
2022-08-18T08:19:15.677Z,1005.75
2022-08-18T08:20:15.690Z,1005.75
2022-08-18T08:21:15.708Z,1005.74
2022-08-18T08:23:23.326Z,1005.75
2022-08-18T08:24:23.341Z,1005.74
2022-08-18T08:29:37.549Z,1005.76
2022-08-18T08:32:00.208Z,1005.76
2022-08-18T08:33:00.217Z,1005.75
2022-08-18T08:45:00.262Z,1005.80
2022-08-18T08:45:52.495Z,1005.81
2022-08-18T08:46:52.508Z,1005.83
2022-08-18T08:47:52.708Z,1005.86
2022-08-18T08:48:52.535Z,1005.85
2022-08-18T08:50:50.132Z,1005.81
2022-08-18T08:51:50.159Z,1005.81
2022-08-18T08:52:50.157Z,1005.82
2022-08-18T08:53:50.988Z,1005.74
2022-08-18T08:54:50.196Z,1005.76
2022-08-18T08:55:50.214Z,1005.73
2022-08-18T08:56:50.226Z,1005.70
2022-08-18T08:57:53.066Z,1005.80
2022-08-18T08:59:32.800Z,1005.75
2022-08-18T09:01:40.508Z,1005.76
2022-08-18T09:02:48.710Z,1005.73
2022-08-18T09:03:40.467Z,1005.78
2022-08-18T09:04:54.723Z,1005.77
2022-08-18T09:06:23.046Z,1005.77
2022-08-18T09:07:23.056Z,1005.75
2022-08-18T09:41:33.203Z,1005.49
2022-08-18T09:42:33.218Z,1005.50
2022-08-18T09:43:33.238Z,1005.49
2022-08-18T09:44:33.256Z,1005.49
2022-08-18T09:46:20.838Z,1005.44
2022-08-18T09:47:20.850Z,1005.48
2022-08-18T11:22:03.339Z,1005.44
2022-08-18T11:23:45.916Z,1005.48
2022-08-18T11:24:46.334Z,1005.50
2022-08-18T11:25:46.126Z,1005.52
2022-08-18T11:30:08.675Z,1005.46
2022-08-18T11:31:08.647Z,1005.41
2022-08-18T11:33:11.707Z,1005.40
2022-08-18T11:34:08.692Z,1005.37
2022-08-18T11:35:08.709Z,1005.39
2022-08-18T11:36:08.732Z,1005.38
2022-08-18T11:43:51.381Z,1005.34
2022-08-18T11:44:51.398Z,1005.36
2022-08-18T11:46:34.740Z,1005.35
2022-08-18T11:47:33.985Z,1005.37
2022-08-18T11:48:39.129Z,1005.38
2022-08-18T11:49:34.184Z,1005.42
2022-08-18T11:50:34.035Z,1005.41
2022-08-18T11:51:34.056Z,1005.44
2022-08-18T11:52:36.685Z,1005.43
2022-08-18T15:30:02.524Z,1004.97
2022-08-18T15:33:32.276Z,1004.99
2022-08-18T15:34:28.434Z,1005.00
2022-08-18T15:35:28.451Z,1004.98
2022-08-18T15:36:29.362Z,1004.99
2022-08-18T15:37:28.474Z,1005.01
2022-08-18T15:38:28.494Z,1004.99
2022-08-18T15:39:28.553Z,1005.05
2022-08-18T15:40:35.521Z,1005.01
2022-08-18T15:49:44.473Z,1004.92
2022-08-18T15:50:44.490Z,1004.91
2022-08-18T15:51:45.325Z,1004.90
2022-08-18T15:52:44.545Z,1004.91
2022-08-18T15:53:45.642Z,1004.93
2022-08-18T15:54:44.545Z,1004.89
2022-08-18T15:55:44.567Z,1004.91
2022-08-18T15:56:44.580Z,1004.91
2022-08-18T15:57:44.587Z,1004.83
2022-08-18T15:58:44.611Z,1004.85
2022-08-18T15:59:44.619Z,1004.85
2022-08-18T16:00:45.639Z,1004.84
2022-08-18T16:01:47.247Z,1004.84
2022-08-18T16:02:48.703Z,1004.76
2022-08-18T16:03:44.688Z,1004.82
2022-08-18T16:04:47.325Z,1004.85
2022-08-18T16:05:44.721Z,1004.89
2022-08-18T16:06:44.736Z,1004.86
2022-08-18T16:07:45.134Z,1004.84
2022-08-18T16:08:44.759Z,1004.82
2022-08-18T16:09:44.791Z,1004.83
2022-08-18T16:10:44.799Z,1004.79
2022-08-18T16:11:44.813Z,1004.79
2022-08-18T16:12:45.918Z,1004.77
2022-08-18T16:13:44.840Z,1004.72
2022-08-18T16:14:44.853Z,1004.73
2022-08-18T16:15:44.866Z,1004.69
2022-08-18T16:16:44.889Z,1004.70
2022-08-18T16:17:44.899Z,1004.66
2022-08-18T16:18:44.923Z,1004.64
2022-08-18T16:19:44.934Z,1004.61
2022-08-18T16:20:44.954Z,1004.60
2022-08-18T16:21:44.963Z,1004.58
2022-08-18T16:22:44.978Z,1004.55
2022-08-18T16:23:44.999Z,1004.52
2022-08-18T16:24:45.012Z,1004.52
2022-08-18T16:25:45.023Z,1004.47
2022-08-18T16:26:45.043Z,1004.45
2022-08-18T16:27:45.060Z,1004.39
2022-08-18T16:28:45.069Z,1004.45
2022-08-18T16:29:45.085Z,1004.43
2022-08-18T16:30:45.101Z,1004.47
2022-08-18T16:31:45.116Z,1004.51
2022-08-18T16:32:45.146Z,1004.48
2022-08-18T16:33:45.146Z,1004.53
2022-08-18T16:34:45.170Z,1004.51
2022-08-18T16:35:45.275Z,1004.53
2022-08-18T16:36:45.192Z,1004.55
2022-08-18T16:37:45.209Z,1004.53
2022-08-18T16:38:47.056Z,1004.51
2022-08-18T16:39:45.280Z,1004.50
2022-08-18T16:40:45.260Z,1004.46
2022-08-18T16:41:45.269Z,1004.49
2022-08-18T16:42:45.292Z,1004.49
2022-08-18T16:43:45.299Z,1004.47
2022-08-18T16:44:45.313Z,1004.50
2022-08-18T16:45:45.339Z,1004.43
2022-08-18T16:46:45.355Z,1004.51
2022-08-18T16:47:45.397Z,1004.51
2022-08-18T16:48:45.378Z,1004.48
2022-08-18T16:49:45.395Z,1004.53
2022-08-18T16:50:45.403Z,1004.49
2022-08-18T16:51:45.427Z,1004.47
2022-08-18T16:52:45.546Z,1004.45
2022-08-18T16:53:45.457Z,1004.44
2022-08-18T16:54:45.470Z,1004.44
2022-08-18T16:55:45.490Z,1004.40
2022-08-18T16:56:45.502Z,1004.38
2022-08-18T16:57:53.797Z,1004.37
2022-08-18T16:58:45.524Z,1004.35
2022-08-18T16:59:45.557Z,1004.32
2022-08-18T17:00:45.553Z,1004.29
2022-08-18T17:01:48.803Z,1004.26
2022-08-18T17:02:45.630Z,1004.21
2022-08-18T17:03:45.606Z,1004.23
2022-08-18T17:04:45.620Z,1004.28
2022-08-18T17:05:45.629Z,1004.18
2022-08-18T17:06:47.488Z,1004.18
2022-08-18T17:07:45.718Z,1004.15
2022-08-18T17:08:45.679Z,1004.12
2022-08-18T17:09:45.688Z,1004.10
2022-08-18T17:10:45.705Z,1004.08
2022-08-18T17:11:51.427Z,1004.10
2022-08-18T17:12:45.776Z,1004.04
2022-08-18T17:13:45.747Z,1004.02
2022-08-18T17:14:47.178Z,1004.01
2022-08-18T17:15:45.784Z,1004.02
2022-08-18T17:16:45.798Z,1004.00
2022-08-18T17:17:45.815Z,1004.03
2022-08-18T17:18:45.823Z,1004.01
2022-08-18T17:19:45.844Z,1004.00
2022-08-18T17:20:45.850Z,1003.96
2022-08-18T17:21:45.866Z,1004.00
2022-08-18T17:22:45.918Z,1003.98
2022-08-18T17:23:45.995Z,1003.94
2022-08-18T17:24:48.595Z,1003.94
2022-08-18T17:30:00.149Z,1004.02
2022-08-18T17:31:00.143Z,1003.98
2022-08-18T17:32:00.166Z,1003.99
2022-08-18T17:33:01.249Z,1003.98
2022-08-18T17:34:00.194Z,1003.97
2022-08-18T17:35:00.204Z,1003.96
2022-08-18T17:36:00.223Z,1003.95
2022-08-18T17:37:00.232Z,1003.97
2022-08-18T17:38:00.252Z,1003.92
2022-08-18T17:39:00.260Z,1003.93
2022-08-18T17:40:00.368Z,1004.00
2022-08-18T17:42:02.882Z,1003.99
2022-08-18T17:43:02.904Z,1004.00
2022-08-18T17:44:04.327Z,1003.99
2022-08-18T17:45:04.237Z,1004.03
2022-08-18T17:46:02.947Z,1004.05
2022-08-18T17:47:02.963Z,1004.09
2022-08-18T17:48:02.976Z,1004.11
2022-08-18T17:49:02.985Z,1004.11
2022-08-18T17:50:27.101Z,1004.10
2022-08-18T17:51:03.018Z,1004.13
2022-08-18T17:52:03.238Z,1004.10
2022-08-18T17:53:03.044Z,1004.14
2022-08-18T18:07:25.762Z,1004.28
2022-08-18T18:08:25.775Z,1004.29
2022-08-18T18:13:14.293Z,1004.24
2022-08-18T18:14:14.307Z,1004.29
2022-08-18T18:15:14.319Z,1004.29
2022-08-18T18:16:14.335Z,1004.28
2022-08-18T18:17:14.524Z,1004.29
2022-08-18T18:18:14.364Z,1004.30
2022-08-18T18:19:14.378Z,1004.34
2022-08-18T18:20:15.539Z,1004.31
2022-08-18T18:21:14.399Z,1004.39
2022-08-18T18:22:14.412Z,1004.40
2022-08-18T18:23:14.435Z,1004.46
2022-08-18T18:24:14.440Z,1004.46
2022-08-18T18:25:14.461Z,1004.48
2022-08-18T18:26:14.471Z,1004.47
2022-08-18T18:27:14.483Z,1004.49
2022-08-18T18:28:14.499Z,1004.51
2022-08-18T18:29:14.514Z,1004.50
2022-08-18T18:30:14.525Z,1004.51
2022-08-18T18:31:14.540Z,1004.50
2022-08-18T18:32:14.552Z,1004.49
2022-08-18T18:33:14.567Z,1004.51
2022-08-18T18:34:23.598Z,1004.51
2022-08-18T18:35:14.604Z,1004.57
2022-08-18T18:36:14.610Z,1004.57
2022-08-18T18:37:14.632Z,1004.56
2022-08-18T18:38:14.652Z,1004.59
2022-08-18T18:39:14.654Z,1004.62
2022-08-18T18:40:14.711Z,1004.65
2022-08-18T18:41:14.687Z,1004.69
2022-08-18T18:42:14.695Z,1004.67
2022-08-18T18:43:14.741Z,1004.67
2022-08-18T18:44:14.722Z,1004.66
2022-08-18T18:45:14.736Z,1004.64
2022-08-18T18:46:18.580Z,1004.60
2022-08-18T18:47:14.765Z,1004.59
2022-08-18T18:48:48.146Z,1004.54
2022-08-18T18:49:14.792Z,1004.53
2022-08-18T18:50:14.812Z,1004.52
2022-08-18T18:51:14.828Z,1004.53
2022-08-18T18:52:14.833Z,1004.52
2022-08-18T18:53:14.847Z,1004.60
2022-08-18T18:54:14.861Z,1004.61
2022-08-18T18:55:14.881Z,1004.62
2022-08-18T18:56:14.889Z,1004.62
2022-08-18T18:57:14.908Z,1004.66
2022-08-18T18:58:14.917Z,1004.67
2022-08-18T18:59:14.938Z,1004.68
2022-08-18T19:00:18.179Z,1004.68
2022-08-18T19:01:15.022Z,1004.68
2022-08-18T19:02:33.671Z,1004.69
2022-08-18T19:03:14.994Z,1004.68
2022-08-18T19:04:14.999Z,1004.74
2022-08-18T19:05:15.014Z,1004.72
2022-08-18T19:06:15.028Z,1004.72
2022-08-18T19:07:21.092Z,1004.73
2022-08-18T19:08:15.054Z,1004.74
2022-08-18T19:09:15.073Z,1004.72
2022-08-18T19:10:15.083Z,1004.74
2022-08-18T19:11:15.099Z,1004.75
2022-08-18T19:12:15.110Z,1004.70
2022-08-18T19:13:29.934Z,1004.79
2022-08-18T19:14:15.145Z,1004.80
2022-08-18T19:15:15.154Z,1004.79
2022-08-18T19:16:23.769Z,1004.83
2022-08-18T19:17:15.189Z,1004.88
2022-08-18T19:18:15.203Z,1004.90
2022-08-18T19:19:37.050Z,1004.92
2022-08-18T19:20:15.221Z,1004.93
2022-08-18T19:22:03.774Z,1004.97
2022-08-18T19:22:18.723Z,1004.98
2022-08-18T19:23:19.558Z,1005.05
2022-08-18T19:24:15.276Z,1005.04
2022-08-18T19:25:15.296Z,1005.04
2022-08-18T19:26:15.312Z,1005.08
2022-08-18T19:27:15.328Z,1005.09
2022-08-18T19:28:15.332Z,1005.08
2022-08-18T19:29:15.345Z,1005.09
2022-08-18T19:30:15.366Z,1005.11
2022-08-18T19:31:15.383Z,1005.09
2022-08-18T19:32:16.787Z,1005.08
2022-08-18T19:33:15.401Z,1005.06
2022-08-18T19:34:15.414Z,1005.09
2022-08-18T19:35:15.436Z,1005.06
2022-08-18T19:36:19.552Z,1005.07
2022-08-18T19:37:22.671Z,1005.11
2022-08-18T19:38:15.471Z,1005.14
2022-08-18T19:39:15.484Z,1005.18
2022-08-18T19:40:15.503Z,1005.19
2022-08-18T19:41:20.152Z,1005.17
2022-08-18T19:42:15.524Z,1005.23
2022-08-18T19:43:15.545Z,1005.24
2022-08-18T19:44:15.562Z,1005.25